Time,TemperatureF,DewpointF,PressureIn,WindDirection,WindDirectionDegrees,WindSpeedMPH,WindSpeedGustMPH,Humidity,HourlyPrecipIn,Conditions,Clouds,dailyrainin,SoftwareType,DateUTC
2013-01-02 00:02:00,21.0,11.0,17.72,NW,314,0.0,0.0,66,0.00,,,0.00,,2013-01-02 09:02:00,
2013-01-02 00:12:00,21.0,11.0,17.72,NW,314,0.0,0.0,66,0.00,,,0.00,,2013-01-02 09:12:00,
2013-01-02 00:22:00,21.0,11.0,17.72,NW,314,3.0,3.0,66,0.00,,,0.00,,2013-01-02 09:22:00,
2013-01-02 00:32:00,21.0,11.0,17.72,West,262,5.0,5.0,66,0.00,,,0.00,,2013-01-02 09:32:00,
2013-01-02 00:42:00,21.0,11.0,17.72,West,262,5.0,5.0,66,0.00,,,0.00,,2013-01-02 09:42:00,
2013-01-02 00:52:00,21.0,11.0,17.72,WSW,257,0.0,0.0,66,0.00,,,0.00,,2013-01-02 09:52:00,
2013-01-02 01:01:00,21.0,11.0,17.72,WSW,257,0.0,0.0,66,0.00,,,0.00,,2013-01-02 10:01:00,
2013-01-02 01:12:00,21.0,11.0,17.72,WSW,257,0.0,0.0,66,0.00,,,0.00,,2013-01-02 10:12:00,
2013-01-02 01:22:00,21.0,11.0,17.72,WSW,257,0.0,0.0,66,0.00,,,0.00,,2013-01-02 10:22:00,
2013-01-02 01:32:00,20.0,10.0,17.72,WSW,257,0.0,0.0,65,0.00,,,0.00,,2013-01-02 10:32:00,
2013-01-02 01:52:00,20.0,10.0,17.72,WNW,289,0.0,0.0,65,0.00,,,0.00,,2013-01-02 10:52:00,
2013-01-02 02:02:00,20.0,10.0,17.72,WNW,287,0.0,0.0,65,0.00,,,0.00,,2013-01-02 11:02:00,
2013-01-02 02:22:00,20.0,10.0,17.72,WSW,238,4.0,4.0,65,0.00,,,0.00,,2013-01-02 11:22:00,
2013-01-02 02:32:00,20.0,10.0,17.72,NNW,334,3.0,3.0,65,0.00,,,0.00,,2013-01-02 11:32:00,
2013-01-02 02:42:00,20.0,10.0,17.72,NNW,334,3.0,3.0,65,0.00,,,0.00,,2013-01-02 11:42:00,
2013-01-02 02:52:00,20.0,10.0,17.72,West,280,0.0,0.0,65,0.00,,,0.00,,2013-01-02 11:52:00,
2013-01-02 03:02:00,20.0,10.0,17.72,WNW,292,0.0,0.0,65,0.00,,,0.00,,2013-01-02 12:02:00,
2013-01-02 03:12:00,20.0,10.0,17.72,WNW,292,0.0,0.0,65,0.00,,,0.00,,2013-01-02 12:12:00,
2013-01-02 03:22:00,20.0,10.0,17.72,NNW,330,0.0,0.0,64,0.00,,,0.00,,2013-01-02 12:22:00,
2013-01-02 03:32:00,20.0,10.0,17.72,NNW,329,0.0,0.0,64,0.00,,,0.00,,2013-01-02 12:32:00,
2013-01-02 03:42:00,20.0,10.0,17.72,NNW,329,0.0,0.0,64,0.00,,,0.00,,2013-01-02 12:42:00,
2013-01-02 04:02:00,19.0,9.0,17.72,WNW,295,0.0,0.0,64,0.00,,,0.00,,2013-01-02 13:02:00,
2013-01-02 04:22:00,19.0,9.0,17.72,NW,315,0.0,0.0,63,0.00,,,0.00,,2013-01-02 13:22:00,
2013-01-02 04:32:00,19.0,9.0,17.72,West,275,5.0,5.0,63,0.00,,,0.00,,2013-01-02 13:32:00,
2013-01-02 04:42:00,19.0,9.0,17.72,West,275,5.0,5.0,63,0.00,,,0.00,,2013-01-02 13:42:00,
2013-01-02 04:52:00,19.0,9.0,17.72,NW,314,3.0,3.0,63,0.00,,,0.00,,2013-01-02 13:52:00,
2013-01-02 05:01:00,19.0,9.0,17.72,NNW,328,0.0,0.0,64,0.00,,,0.00,,2013-01-02 14:01:00,
2013-01-02 05:12:00,19.0,9.0,17.72,NNW,328,0.0,0.0,64,0.00,,,0.00,,2013-01-02 14:12:00,
2013-01-02 05:22:00,18.0,7.0,17.72,West,280,0.0,0.0,62,0.00,,,0.00,,2013-01-02 14:22:00,
2013-01-02 05:32:00,18.0,7.0,17.72,West,280,0.0,0.0,62,0.00,,,0.00,,2013-01-02 14:32:00,
2013-01-02 05:42:00,18.0,7.0,17.72,West,280,0.0,0.0,62,0.00,,,0.00,,2013-01-02 14:42:00,
2013-01-02 05:53:00,18.0,7.0,17.72,West,280,0.0,0.0,62,0.00,,,0.00,,2013-01-02 14:53:00,
2013-01-02 06:02:00,18.0,8.0,17.72,West,280,0.0,0.0,63,0.00,,,0.00,,2013-01-02 15:02:00,
2013-01-02 06:11:00,18.0,8.0,17.72,West,280,0.0,0.0,63,0.00,,,0.00,,2013-01-02 15:11:00,
2013-01-02 06:22:00,18.0,8.0,17.72,West,280,0.0,0.0,63,0.00,,,0.00,,2013-01-02 15:22:00,
2013-01-02 06:32:00,18.0,8.0,17.72,West,280,0.0,0.0,63,0.00,,,0.00,,2013-01-02 15:32:00,
2013-01-02 06:42:00,18.0,8.0,17.72,West,280,0.0,0.0,63,0.00,,,0.00,,2013-01-02 15:42:00,
2013-01-02 06:53:00,18.0,8.0,17.72,West,280,0.0,0.0,63,0.00,,,0.00,,2013-01-02 15:53:00,
2013-01-02 07:02:00,18.0,8.0,17.72,West,279,0.0,0.0,63,0.00,,,0.00,,2013-01-02 16:02:00,
2013-01-02 07:11:00,18.0,8.0,17.72,West,279,0.0,0.0,63,0.00,,,0.00,,2013-01-02 16:11:00,
2013-01-02 07:22:00,19.0,9.0,17.72,West,280,0.0,0.0,63,0.00,,,0.00,,2013-01-02 16:22:00,
2013-01-02 07:32:00,18.0,8.0,17.72,West,280,0.0,0.0,63,0.00,,,0.00,,2013-01-02 16:32:00,
2013-01-02 07:42:00,18.0,8.0,17.72,West,280,0.0,0.0,63,0.00,,,0.00,,2013-01-02 16:42:00,
2013-01-02 07:53:00,18.0,8.0,17.72,West,280,0.0,0.0,63,0.00,,,0.00,,2013-01-02 16:53:00,
2013-01-02 08:02:00,18.0,7.0,17.72,West,280,0.0,0.0,62,0.00,,,0.00,,2013-01-02 17:02:00,
2013-01-02 08:12:00,18.0,7.0,17.72,West,280,0.0,0.0,62,0.00,,,0.00,,2013-01-02 17:12:00,
2013-01-02 08:22:00,18.0,8.0,17.72,West,280,0.0,0.0,63,0.00,,,0.00,,2013-01-02 17:22:00,
2013-01-02 08:32:00,18.0,7.0,17.72,West,280,0.0,0.0,62,0.00,,,0.00,,2013-01-02 17:32:00,
2013-01-02 08:42:00,18.0,7.0,17.72,West,280,0.0,0.0,62,0.00,,,0.00,,2013-01-02 17:42:00,
2013-01-02 08:53:00,18.0,7.0,17.72,West,279,0.0,0.0,62,0.00,,,0.00,,2013-01-02 17:53:00,
2013-01-02 09:02:00,18.0,7.0,17.72,West,277,0.0,0.0,62,0.00,,,0.00,,2013-01-02 18:02:00,
2013-01-02 09:12:00,18.0,7.0,17.72,West,277,0.0,0.0,62,0.00,,,0.00,,2013-01-02 18:12:00,
2013-01-02 09:22:00,18.0,7.0,17.72,West,280,0.0,0.0,62,0.00,,,0.00,,2013-01-02 18:22:00,
2013-01-02 09:32:00,17.0,6.0,17.72,West,277,0.0,0.0,62,0.00,,,0.00,,2013-01-02 18:32:00,
2013-01-02 09:42:00,17.0,6.0,17.72,West,277,0.0,0.0,62,0.00,,,0.00,,2013-01-02 18:42:00,
2013-01-02 09:53:00,16.0,5.0,17.72,WNW,302,0.0,0.0,61,0.00,,,0.00,,2013-01-02 18:53:00,
2013-01-02 10:02:00,16.0,5.0,17.72,South,172,0.0,0.0,60,0.00,,,0.00,,2013-01-02 19:02:00,
2013-01-02 10:12:00,16.0,5.0,17.72,South,172,0.0,0.0,60,0.00,,,0.00,,2013-01-02 19:12:00,
2013-01-02 10:22:00,15.0,4.0,17.72,West,280,0.0,0.0,61,0.00,,,0.00,,2013-01-02 19:22:00,
2013-01-02 10:32:00,15.0,4.0,17.72,WNW,284,0.0,0.0,60,0.00,,,0.00,,2013-01-02 19:32:00,
2013-01-02 10:52:00,15.0,4.0,17.72,NNW,347,0.0,0.0,61,0.00,,,0.00,,2013-01-02 19:52:00,
2013-01-02 11:02:00,15.0,4.0,17.72,NW,309,3.0,3.0,61,0.00,,,0.00,,2013-01-02 20:02:00,
2013-01-02 11:11:00,15.0,4.0,17.72,NW,309,3.0,3.0,61,0.00,,,0.00,,2013-01-02 20:11:00,
2013-01-02 11:22:00,15.0,4.0,17.72,NW,309,0.0,0.0,60,0.00,,,0.00,,2013-01-02 20:22:00,
2013-01-02 11:32:00,15.0,4.0,17.72,NW,310,0.0,0.0,60,0.00,,,0.00,,2013-01-02 20:32:00,
2013-01-02 11:42:00,15.0,4.0,17.72,NW,310,0.0,0.0,60,0.00,,,0.00,,2013-01-02 20:42:00,
2013-01-02 11:53:00,15.0,4.0,17.72,NW,309,0.0,0.0,61,0.00,,,0.00,,2013-01-02 20:53:00,
2013-01-02 12:02:00,15.0,4.0,17.72,NW,309,0.0,0.0,61,0.00,,,0.00,,2013-01-02 21:02:00,
2013-01-02 12:12:00,15.0,4.0,17.72,NW,309,0.0,0.0,61,0.00,,,0.00,,2013-01-02 21:12:00,
2013-01-02 12:22:00,16.0,5.0,17.72,NW,309,0.0,0.0,61,0.00,,,0.00,,2013-01-02 21:22:00,
2013-01-02 12:32:00,16.0,5.0,17.72,NW,309,0.0,0.0,61,0.00,,,0.00,,2013-01-02 21:32:00,
2013-01-02 12:42:00,16.0,5.0,17.72,NW,309,0.0,0.0,61,0.00,,,0.00,,2013-01-02 21:42:00,
2013-01-02 12:52:00,16.0,5.0,17.72,NW,309,0.0,0.0,61,0.00,,,0.00,,2013-01-02 21:52:00,
2013-01-02 13:02:00,16.0,5.0,17.72,NW,309,0.0,0.0,61,0.00,,,0.00,,2013-01-02 22:02:00,
2013-01-02 13:12:00,16.0,5.0,17.72,NW,309,0.0,0.0,61,0.00,,,0.00,,2013-01-02 22:12:00,
2013-01-02 13:22:00,17.0,6.0,17.72,NW,309,0.0,0.0,61,0.00,,,0.00,,2013-01-02 22:22:00,
2013-01-02 13:32:00,17.0,6.0,17.72,NW,309,0.0,0.0,62,0.00,,,0.00,,2013-01-02 22:32:00,
2013-01-02 13:42:00,17.0,6.0,17.72,NW,309,0.0,0.0,62,0.00,,,0.00,,2013-01-02 22:42:00,
2013-01-02 13:52:00,17.0,6.0,17.72,NW,309,0.0,0.0,61,0.00,,,0.00,,2013-01-02 22:52:00,
2013-01-02 14:02:00,17.0,6.0,17.72,NW,309,0.0,0.0,61,0.00,,,0.00,,2013-01-02 23:02:00,
2013-01-02 14:12:00,16.0,5.0,17.72,NW,309,0.0,0.0,60,0.00,,,0.00,,2013-01-02 23:12:00,
2013-01-02 14:22:00,16.0,5.0,17.72,NW,309,0.0,0.0,60,0.00,,,0.00,,2013-01-02 23:22:00,
2013-01-02 14:32:00,16.0,5.0,17.72,NW,309,0.0,0.0,60,0.00,,,0.00,,2013-01-02 23:32:00,
2013-01-02 14:42:00,16.0,5.0,17.72,NW,309,0.0,0.0,60,0.00,,,0.00,,2013-01-02 23:42:00,
2013-01-02 14:52:00,15.0,4.0,17.72,NW,309,0.0,0.0,60,0.00,,,0.00,,2013-01-02 23:52:00,
2013-01-02 15:02:00,15.0,4.0,17.72,NW,309,0.0,0.0,61,0.00,,,0.00,,2013-01-03 00:02:00,
2013-01-02 15:12:00,15.0,4.0,17.72,NW,309,0.0,0.0,61,0.00,,,0.00,,2013-01-03 00:12:00,
2013-01-02 15:22:00,15.0,4.0,17.72,NW,309,0.0,0.0,60,0.00,,,0.00,,2013-01-03 00:22:00,
2013-01-02 15:33:00,15.0,4.0,17.72,NW,311,0.0,0.0,61,0.00,,,0.00,,2013-01-03 00:33:00,
2013-01-02 15:52:00,16.0,5.0,17.72,NW,310,0.0,0.0,61,0.00,,,0.00,,2013-01-03 00:52:00,
2013-01-02 16:02:00,16.0,5.0,17.72,NW,310,0.0,0.0,61,0.00,,,0.00,,2013-01-03 01:02:00,
2013-01-02 16:11:00,16.0,5.0,17.72,NW,310,0.0,0.0,61,0.00,,,0.00,,2013-01-03 01:11:00,
2013-01-02 16:22:00,16.0,5.0,17.72,NW,310,0.0,0.0,61,0.00,,,0.00,,2013-01-03 01:22:00,
2013-01-02 16:32:00,16.0,5.0,17.72,WNW,289,0.0,0.0,61,0.00,,,0.00,,2013-01-03 01:32:00,
2013-01-02 16:42:00,16.0,5.0,17.72,WNW,289,0.0,0.0,61,0.00,,,0.00,,2013-01-03 01:42:00,
2013-01-02 16:52:00,17.0,6.0,17.72,WNW,289,0.0,0.0,61,0.00,,,0.00,,2013-01-03 01:52:00,
2013-01-02 17:01:00,17.0,6.0,17.72,WNW,289,0.0,0.0,61,0.00,,,0.00,,2013-01-03 02:01:00,
2013-01-02 17:11:00,17.0,6.0,17.72,WNW,289,0.0,0.0,61,0.00,,,0.00,,2013-01-03 02:11:00,
2013-01-02 17:22:00,17.0,6.0,17.72,WNW,289,0.0,0.0,61,0.00,,,0.00,,2013-01-03 02:22:00,
2013-01-02 17:32:00,17.0,6.0,17.72,WNW,289,0.0,0.0,61,0.00,,,0.00,,2013-01-03 02:32:00,
2013-01-02 17:42:00,17.0,6.0,17.72,WNW,289,0.0,0.0,61,0.00,,,0.00,,2013-01-03 02:42:00,
2013-01-02 17:52:00,17.0,6.0,17.72,WNW,289,0.0,0.0,61,0.00,,,0.00,,2013-01-03 02:52:00,
2013-01-02 18:02:00,17.0,6.0,17.72,NW,306,3.0,3.0,61,0.00,,,0.00,,2013-01-03 03:02:00,
2013-01-02 18:11:00,17.0,6.0,17.72,NW,304,0.0,0.0,61,0.00,,,0.00,,2013-01-03 03:11:00,
2013-01-02 18:22:00,17.0,6.0,17.72,NW,304,0.0,0.0,61,0.00,,,0.00,,2013-01-03 03:22:00,
2013-01-02 18:32:00,17.0,6.0,17.72,SW,229,0.0,0.0,61,0.00,,,0.00,,2013-01-03 03:32:00,
2013-01-02 18:52:00,16.0,5.0,17.72,WNW,293,0.0,0.0,61,0.00,,,0.00,,2013-01-03 03:52:00,
2013-01-02 19:01:00,16.0,5.0,17.72,WNW,298,0.0,0.0,61,0.00,,,0.00,,2013-01-03 04:01:00,
2013-01-02 19:11:00,16.0,5.0,17.72,WNW,298,0.0,0.0,61,0.00,,,0.00,,2013-01-03 04:11:00,
2013-01-02 19:22:00,17.0,6.0,17.72,NW,305,0.0,0.0,62,0.00,,,0.00,,2013-01-03 04:22:00,
2013-01-02 19:32:00,17.0,6.0,17.72,SSW,198,0.0,0.0,62,0.00,,,0.00,,2013-01-03 04:32:00,
2013-01-02 19:42:00,17.0,6.0,17.72,SSW,198,0.0,0.0,62,0.00,,,0.00,,2013-01-03 04:42:00,
2013-01-02 19:52:00,17.0,6.0,17.72,NNW,330,0.0,0.0,61,0.00,,,0.00,,2013-01-03 04:52:00,
2013-01-02 20:03:00,16.0,5.0,17.72,WNW,295,3.0,3.0,60,0.00,,,0.00,,2013-01-03 05:03:00,
2013-01-02 20:12:00,16.0,5.0,17.72,WNW,282,0.0,0.0,60,0.00,,,0.00,,2013-01-03 05:12:00,
2013-01-02 20:22:00,16.0,5.0,17.72,WNW,282,0.0,0.0,60,0.00,,,0.00,,2013-01-03 05:22:00,
2013-01-02 20:33:00,16.0,5.0,17.72,WNW,288,0.0,0.0,60,0.00,,,0.00,,2013-01-03 05:33:00,
2013-01-02 20:42:00,16.0,5.0,17.72,WNW,288,0.0,0.0,60,0.00,,,0.00,,2013-01-03 05:42:00,
2013-01-02 20:52:00,16.0,5.0,17.72,NW,304,0.0,0.0,60,0.00,,,0.00,,2013-01-03 05:52:00,
2013-01-02 21:02:00,15.0,4.0,17.72,NW,304,0.0,0.0,60,0.00,,,0.00,,2013-01-03 06:02:00,
2013-01-02 21:22:00,16.0,5.0,17.72,NW,322,0.0,0.0,61,0.00,,,0.00,,2013-01-03 06:22:00,
2013-01-02 21:32:00,16.0,5.0,17.72,NW,304,0.0,0.0,60,0.00,,,0.00,,2013-01-03 06:32:00,
2013-01-02 21:42:00,16.0,5.0,17.72,NW,304,0.0,0.0,60,0.00,,,0.00,,2013-01-03 06:42:00,
2013-01-02 21:52:00,16.0,5.0,17.72,WNW,284,0.0,2.0,60,0.00,,,0.00,,2013-01-03 06:52:00,
2013-01-02 22:02:00,16.0,5.0,17.72,WNW,284,0.0,0.0,60,0.00,,,0.00,,2013-01-03 07:02:00,
2013-01-02 22:11:00,16.0,5.0,17.72,WNW,284,0.0,0.0,60,0.00,,,0.00,,2013-01-03 07:11:00,
2013-01-02 22:22:00,15.0,4.0,17.72,NW,311,4.0,4.0,60,0.00,,,0.00,,2013-01-03 07:22:00,
2013-01-02 22:32:00,15.0,4.0,17.72,NW,323,4.0,4.0,60,0.00,,,0.00,,2013-01-03 07:32:00,
2013-01-02 22:42:00,15.0,4.0,17.72,NW,323,4.0,4.0,60,0.00,,,0.00,,2013-01-03 07:42:00,
2013-01-02 22:52:00,16.0,5.0,17.72,NW,312,4.0,4.0,61,0.00,,,0.00,,2013-01-03 07:52:00,
2013-01-02 23:01:00,16.0,5.0,17.72,WNW,289,0.0,0.0,61,0.00,,,0.00,,2013-01-03 08:01:00,
2013-01-02 23:11:00,16.0,5.0,17.72,WNW,289,0.0,0.0,61,0.00,,,0.00,,2013-01-03 08:11:00,
2013-01-02 23:22:00,17.0,6.0,17.72,WNW,303,0.0,0.0,61,0.00,,,0.00,,2013-01-03 08:22:00,
2013-01-02 23:32:00,17.0,6.0,17.72,WNW,302,0.0,0.0,62,0.00,,,0.00,,2013-01-03 08:32:00,
2013-01-02 23:42:00,17.0,6.0,17.72,WNW,302,0.0,0.0,62,0.00,,,0.00,,2013-01-03 08:42:00,
2013-01-02 23:53:00,17.0,6.0,17.72,NW,308,0.0,0.0,61,0.00,,,0.00,,2013-01-03 08:53:00,